sensor_id;sensor_type;location;lat;lon;timestamp;P1;durP1;ratioP1;P2;durP2;ratioP2
71174;SDS011;58876;51.994;4.472;2022-10-28T00:02:11;15.53;;;15.53;;
71174;SDS011;58876;51.994;4.472;2022-10-28T00:04:38;13.95;;;13.95;;
71174;SDS011;58876;51.994;4.472;2022-10-28T00:07:03;10.87;;;10.87;;
71174;SDS011;58876;51.994;4.472;2022-10-28T00:09:29;10.97;;;10.97;;
71174;SDS011;58876;51.994;4.472;2022-10-28T00:11:54;13.13;;;13.13;;
71174;SDS011;58876;51.994;4.472;2022-10-28T00:14:20;11.58;;;11.58;;
71174;SDS011;58876;51.994;4.472;2022-10-28T00:16:46;11.31;;;11.31;;
71174;SDS011;58876;51.994;4.472;2022-10-28T00:19:11;10.03;;;10.03;;
71174;SDS011;58876;51.994;4.472;2022-10-28T00:21:38;10.06;;;10.06;;
71174;SDS011;58876;51.994;4.472;2022-10-28T00:24:06;9.91;;;9.91;;
71174;SDS011;58876;51.994;4.472;2022-10-28T00:26:34;10.03;;;10.03;;
71174;SDS011;58876;51.994;4.472;2022-10-28T00:29:07;10.07;;;10.07;;
71174;SDS011;58876;51.994;4.472;2022-10-28T00:31:35;10.46;;;10.46;;
71174;SDS011;58876;51.994;4.472;2022-10-28T00:34:03;9.97;;;9.97;;
71174;SDS011;58876;51.994;4.472;2022-10-28T00:36:34;10.07;;;10.07;;
71174;SDS011;58876;51.994;4.472;2022-10-28T00:39:02;11.62;;;11.62;;
71174;SDS011;58876;51.994;4.472;2022-10-28T00:41:35;9.91;;;9.91;;
71174;SDS011;58876;51.994;4.472;2022-10-28T00:47:05;10.22;;;10.22;;
71174;SDS011;58876;51.994;4.472;2022-10-28T00:53:05;9.90;;;9.90;;
71174;SDS011;58876;51.994;4.472;2022-10-28T00:55:54;9.91;;;9.91;;
71174;SDS011;58876;51.994;4.472;2022-10-28T00:58:24;10.15;;;10.15;;
71174;SDS011;58876;51.994;4.472;2022-10-28T01:00:51;9.71;;;9.71;;
71174;SDS011;58876;51.994;4.472;2022-10-28T01:03:17;9.97;;;9.97;;
71174;SDS011;58876;51.994;4.472;2022-10-28T01:05:45;9.77;;;9.77;;
71174;SDS011;58876;51.994;4.472;2022-10-28T01:08:12;10.01;;;10.01;;
71174;SDS011;58876;51.994;4.472;2022-10-28T01:22:21;9.47;;;9.47;;
71174;SDS011;58876;51.994;4.472;2022-10-28T01:27:35;9.12;;;9.12;;
71174;SDS011;58876;51.994;4.472;2022-10-28T01:35:37;8.95;;;8.95;;
71174;SDS011;58876;51.994;4.472;2022-10-28T01:40:51;9.29;;;9.29;;
71174;SDS011;58876;51.994;4.472;2022-10-28T01:43:27;9.09;;;9.09;;
71174;SDS011;58876;51.994;4.472;2022-10-28T01:46:13;8.80;;;8.80;;
71174;SDS011;58876;51.994;4.472;2022-10-28T01:48:50;8.57;;;8.57;;
71174;SDS011;58876;51.994;4.472;2022-10-28T01:51:25;8.57;;;8.57;;
71174;SDS011;58876;51.994;4.472;2022-10-28T01:53:58;9.04;;;9.04;;
71174;SDS011;58876;51.994;4.472;2022-10-28T01:56:29;8.50;;;8.50;;
71174;SDS011;58876;51.994;4.472;2022-10-28T01:59:00;9.16;;;9.16;;
71174;SDS011;58876;51.994;4.472;2022-10-28T02:01:31;8.96;;;8.96;;
71174;SDS011;58876;51.994;4.472;2022-10-28T02:03:58;8.49;;;8.49;;
71174;SDS011;58876;51.994;4.472;2022-10-28T02:06:24;8.84;;;8.84;;
71174;SDS011;58876;51.994;4.472;2022-10-28T02:09:05;8.56;;;8.56;;
71174;SDS011;58876;51.994;4.472;2022-10-28T02:14:24;8.44;;;8.44;;
71174;SDS011;58876;51.994;4.472;2022-10-28T02:19:53;8.54;;;8.54;;
71174;SDS011;58876;51.994;4.472;2022-10-28T02:22:53;8.25;;;8.25;;
71174;SDS011;58876;51.994;4.472;2022-10-28T02:25:33;8.29;;;8.29;;
71174;SDS011;58876;51.994;4.472;2022-10-28T02:28:08;8.27;;;8.27;;
71174;SDS011;58876;51.994;4.472;2022-10-28T02:33:09;8.14;;;8.14;;
71174;SDS011;58876;51.994;4.472;2022-10-28T02:35:45;8.22;;;8.22;;
71174;SDS011;58876;51.994;4.472;2022-10-28T02:38:31;8.03;;;8.03;;
71174;SDS011;58876;51.994;4.472;2022-10-28T02:41:11;8.66;;;8.66;;
71174;SDS011;58876;51.994;4.472;2022-10-28T02:43:46;8.14;;;8.14;;
71174;SDS011;58876;51.994;4.472;2022-10-28T02:46:18;8.34;;;8.34;;
71174;SDS011;58876;51.994;4.472;2022-10-28T02:48:48;8.13;;;8.13;;
71174;SDS011;58876;51.994;4.472;2022-10-28T02:51:20;8.38;;;8.38;;
71174;SDS011;58876;51.994;4.472;2022-10-28T02:56:27;8.14;;;8.14;;
71174;SDS011;58876;51.994;4.472;2022-10-28T02:58:58;7.83;;;7.83;;
71174;SDS011;58876;51.994;4.472;2022-10-28T03:01:24;7.89;;;7.89;;
71174;SDS011;58876;51.994;4.472;2022-10-28T03:03:50;7.94;;;7.94;;
71174;SDS011;58876;51.994;4.472;2022-10-28T03:06:15;7.79;;;7.79;;
71174;SDS011;58876;51.994;4.472;2022-10-28T03:08:41;7.60;;;7.60;;
71174;SDS011;58876;51.994;4.472;2022-10-28T03:11:06;7.61;;;7.61;;
71174;SDS011;58876;51.994;4.472;2022-10-28T03:13:32;7.61;;;7.61;;
71174;SDS011;58876;51.994;4.472;2022-10-28T03:15:57;7.53;;;7.53;;
71174;SDS011;58876;51.994;4.472;2022-10-28T03:18:23;7.66;;;7.66;;
71174;SDS011;58876;51.994;4.472;2022-10-28T03:20:48;7.50;;;7.50;;
71174;SDS011;58876;51.994;4.472;2022-10-28T03:23:13;8.16;;;8.16;;
71174;SDS011;58876;51.994;4.472;2022-10-28T03:25:40;7.95;;;7.95;;
71174;SDS011;58876;51.994;4.472;2022-10-28T03:28:05;7.86;;;7.86;;
71174;SDS011;58876;51.994;4.472;2022-10-28T03:30:31;7.41;;;7.41;;
71174;SDS011;58876;51.994;4.472;2022-10-28T03:32:56;7.65;;;7.65;;
71174;SDS011;58876;51.994;4.472;2022-10-28T03:35:21;7.29;;;7.29;;
71174;SDS011;58876;51.994;4.472;2022-10-28T03:37:47;7.45;;;7.45;;
71174;SDS011;58876;51.994;4.472;2022-10-28T03:40:12;7.32;;;7.32;;
71174;SDS011;58876;51.994;4.472;2022-10-28T03:42:39;7.49;;;7.49;;
71174;SDS011;58876;51.994;4.472;2022-10-28T03:45:06;7.23;;;7.22;;
71174;SDS011;58876;51.994;4.472;2022-10-28T03:47:33;7.26;;;7.26;;
71174;SDS011;58876;51.994;4.472;2022-10-28T03:49:59;7.45;;;7.45;;
71174;SDS011;58876;51.994;4.472;2022-10-28T03:52:24;7.42;;;7.42;;
71174;SDS011;58876;51.994;4.472;2022-10-28T03:54:52;6.97;;;6.97;;
71174;SDS011;58876;51.994;4.472;2022-10-28T03:57:17;7.23;;;7.23;;
71174;SDS011;58876;51.994;4.472;2022-10-28T03:59:43;7.03;;;7.03;;
71174;SDS011;58876;51.994;4.472;2022-10-28T04:02:08;6.96;;;6.96;;
71174;SDS011;58876;51.994;4.472;2022-10-28T04:04:33;7.18;;;7.18;;
71174;SDS011;58876;51.994;4.472;2022-10-28T04:06:59;7.17;;;7.16;;
71174;SDS011;58876;51.994;4.472;2022-10-28T04:09:24;7.24;;;7.24;;
71174;SDS011;58876;51.994;4.472;2022-10-28T04:11:50;7.00;;;7.00;;
71174;SDS011;58876;51.994;4.472;2022-10-28T04:14:16;6.98;;;6.98;;
71174;SDS011;58876;51.994;4.472;2022-10-28T04:16:42;7.03;;;7.03;;
71174;SDS011;58876;51.994;4.472;2022-10-28T04:19:07;7.09;;;7.09;;
71174;SDS011;58876;51.994;4.472;2022-10-28T04:21:32;7.41;;;7.41;;
71174;SDS011;58876;51.994;4.472;2022-10-28T04:23:58;7.06;;;7.06;;
71174;SDS011;58876;51.994;4.472;2022-10-28T04:26:25;7.00;;;7.00;;
71174;SDS011;58876;51.994;4.472;2022-10-28T04:28:51;7.04;;;7.04;;
71174;SDS011;58876;51.994;4.472;2022-10-28T04:31:16;6.54;;;6.54;;
71174;SDS011;58876;51.994;4.472;2022-10-28T04:33:42;6.96;;;6.96;;
71174;SDS011;58876;51.994;4.472;2022-10-28T04:36:07;6.93;;;6.93;;
71174;SDS011;58876;51.994;4.472;2022-10-28T04:38:33;6.73;;;6.72;;
71174;SDS011;58876;51.994;4.472;2022-10-28T04:40:58;7.03;;;7.03;;
71174;SDS011;58876;51.994;4.472;2022-10-28T04:43:24;6.57;;;6.57;;
71174;SDS011;58876;51.994;4.472;2022-10-28T04:45:50;6.54;;;6.54;;
71174;SDS011;58876;51.994;4.472;2022-10-28T04:48:16;6.41;;;6.41;;
71174;SDS011;58876;51.994;4.472;2022-10-28T04:50:42;6.66;;;6.66;;
71174;SDS011;58876;51.994;4.472;2022-10-28T04:53:08;6.69;;;6.69;;
71174;SDS011;58876;51.994;4.472;2022-10-28T04:55:33;6.75;;;6.75;;
71174;SDS011;58876;51.994;4.472;2022-10-28T04:57:59;6.48;;;6.48;;
71174;SDS011;58876;51.994;4.472;2022-10-28T05:00:26;6.82;;;6.82;;
71174;SDS011;58876;51.994;4.472;2022-10-28T05:02:53;6.46;;;6.46;;
71174;SDS011;58876;51.994;4.472;2022-10-28T05:05:19;6.83;;;6.83;;
71174;SDS011;58876;51.994;4.472;2022-10-28T05:07:45;7.02;;;7.02;;
71174;SDS011;58876;51.994;4.472;2022-10-28T05:10:10;6.66;;;6.66;;
71174;SDS011;58876;51.994;4.472;2022-10-28T05:12:42;7.06;;;7.06;;
71174;SDS011;58876;51.994;4.472;2022-10-28T05:15:09;6.67;;;6.67;;
71174;SDS011;58876;51.994;4.472;2022-10-28T05:17:37;7.02;;;7.02;;
71174;SDS011;58876;51.994;4.472;2022-10-28T05:20:07;7.13;;;7.13;;
71174;SDS011;58876;51.994;4.472;2022-10-28T05:22:34;7.02;;;7.02;;
71174;SDS011;58876;51.994;4.472;2022-10-28T05:24:59;7.17;;;7.17;;
71174;SDS011;58876;51.994;4.472;2022-10-28T05:27:25;6.71;;;6.71;;
71174;SDS011;58876;51.994;4.472;2022-10-28T05:29:50;7.00;;;6.99;;
71174;SDS011;58876;51.994;4.472;2022-10-28T05:32:15;7.34;;;7.33;;
71174;SDS011;58876;51.994;4.472;2022-10-28T05:34:41;6.93;;;6.93;;
71174;SDS011;58876;51.994;4.472;2022-10-28T05:37:06;7.11;;;7.11;;
71174;SDS011;58876;51.994;4.472;2022-10-28T05:39:32;7.02;;;7.02;;
71174;SDS011;58876;51.994;4.472;2022-10-28T05:41:57;7.21;;;7.21;;
71174;SDS011;58876;51.994;4.472;2022-10-28T05:44:23;7.22;;;7.22;;
71174;SDS011;58876;51.994;4.472;2022-10-28T05:46:49;7.17;;;7.17;;
71174;SDS011;58876;51.994;4.472;2022-10-28T05:49:14;7.48;;;7.48;;
71174;SDS011;58876;51.994;4.472;2022-10-28T05:51:44;7.46;;;7.46;;
71174;SDS011;58876;51.994;4.472;2022-10-28T05:54:12;7.26;;;7.26;;
71174;SDS011;58876;51.994;4.472;2022-10-28T05:56:38;7.69;;;7.69;;
71174;SDS011;58876;51.994;4.472;2022-10-28T05:59:03;7.77;;;7.77;;
71174;SDS011;58876;51.994;4.472;2022-10-28T06:01:29;7.23;;;7.23;;
71174;SDS011;58876;51.994;4.472;2022-10-28T06:03:54;7.32;;;7.32;;
71174;SDS011;58876;51.994;4.472;2022-10-28T06:06:19;6.96;;;6.96;;
71174;SDS011;58876;51.994;4.472;2022-10-28T06:08:46;7.25;;;7.25;;
71174;SDS011;58876;51.994;4.472;2022-10-28T06:11:11;7.51;;;7.51;;
71174;SDS011;58876;51.994;4.472;2022-10-28T06:13:37;7.28;;;7.28;;
71174;SDS011;58876;51.994;4.472;2022-10-28T06:16:02;7.31;;;7.31;;
71174;SDS011;58876;51.994;4.472;2022-10-28T06:18:28;6.96;;;6.96;;
71174;SDS011;58876;51.994;4.472;2022-10-28T06:20:53;6.47;;;6.47;;
71174;SDS011;58876;51.994;4.472;2022-10-28T06:23:21;6.89;;;6.88;;
71174;SDS011;58876;51.994;4.472;2022-10-28T06:25:47;6.62;;;6.61;;
71174;SDS011;58876;51.994;4.472;2022-10-28T06:28:13;6.52;;;6.52;;
71174;SDS011;58876;51.994;4.472;2022-10-28T06:30:39;6.44;;;6.44;;
71174;SDS011;58876;51.994;4.472;2022-10-28T06:33:04;6.60;;;6.60;;
71174;SDS011;58876;51.994;4.472;2022-10-28T06:35:29;6.43;;;6.42;;
71174;SDS011;58876;51.994;4.472;2022-10-28T06:37:55;7.18;;;7.18;;
71174;SDS011;58876;51.994;4.472;2022-10-28T06:40:22;6.39;;;6.39;;
71174;SDS011;58876;51.994;4.472;2022-10-28T06:42:55;6.37;;;6.36;;
71174;SDS011;58876;51.994;4.472;2022-10-28T06:45:32;6.49;;;6.43;;
71174;SDS011;58876;51.994;4.472;2022-10-28T06:48:00;6.20;;;6.20;;
71174;SDS011;58876;51.994;4.472;2022-10-28T06:50:28;6.80;;;6.80;;
71174;SDS011;58876;51.994;4.472;2022-10-28T06:52:55;6.36;;;6.36;;
71174;SDS011;58876;51.994;4.472;2022-10-28T06:55:22;6.54;;;6.53;;
71174;SDS011;58876;51.994;4.472;2022-10-28T06:57:51;6.70;;;6.67;;
71174;SDS011;58876;51.994;4.472;2022-10-28T07:00:17;6.56;;;6.56;;
71174;SDS011;58876;51.994;4.472;2022-10-28T07:02:43;6.47;;;6.46;;
71174;SDS011;58876;51.994;4.472;2022-10-28T07:05:08;6.33;;;6.33;;
71174;SDS011;58876;51.994;4.472;2022-10-28T07:07:34;6.86;;;6.80;;
71174;SDS011;58876;51.994;4.472;2022-10-28T07:10:03;6.54;;;6.54;;
71174;SDS011;58876;51.994;4.472;2022-10-28T07:12:29;6.37;;;6.37;;
71174;SDS011;58876;51.994;4.472;2022-10-28T07:14:55;6.93;;;6.93;;
71174;SDS011;58876;51.994;4.472;2022-10-28T07:17:20;7.42;;;7.42;;
71174;SDS011;58876;51.994;4.472;2022-10-28T07:19:45;6.69;;;6.69;;
71174;SDS011;58876;51.994;4.472;2022-10-28T07:22:11;11.82;;;11.82;;
71174;SDS011;58876;51.994;4.472;2022-10-28T07:24:36;8.94;;;8.94;;
71174;SDS011;58876;51.994;4.472;2022-10-28T07:27:02;12.92;;;12.92;;
71174;SDS011;58876;51.994;4.472;2022-10-28T07:29:27;10.13;;;10.13;;
71174;SDS011;58876;51.994;4.472;2022-10-28T07:31:53;10.59;;;10.59;;
71174;SDS011;58876;51.994;4.472;2022-10-28T07:34:19;11.57;;;11.57;;
71174;SDS011;58876;51.994;4.472;2022-10-28T07:36:52;9.37;;;9.37;;
71174;SDS011;58876;51.994;4.472;2022-10-28T07:39:19;8.89;;;8.89;;
71174;SDS011;58876;51.994;4.472;2022-10-28T07:41:45;10.69;;;10.69;;
71174;SDS011;58876;51.994;4.472;2022-10-28T07:44:12;9.36;;;9.36;;
71174;SDS011;58876;51.994;4.472;2022-10-28T07:46:38;8.50;;;8.50;;
71174;SDS011;58876;51.994;4.472;2022-10-28T07:49:03;9.39;;;9.39;;
71174;SDS011;58876;51.994;4.472;2022-10-28T07:51:29;8.10;;;8.10;;
71174;SDS011;58876;51.994;4.472;2022-10-28T07:53:55;8.84;;;8.84;;
71174;SDS011;58876;51.994;4.472;2022-10-28T07:56:21;11.12;;;11.12;;
71174;SDS011;58876;51.994;4.472;2022-10-28T07:58:47;15.18;;;15.18;;
71174;SDS011;58876;51.994;4.472;2022-10-28T08:01:14;14.18;;;14.18;;
71174;SDS011;58876;51.994;4.472;2022-10-28T08:03:41;22.92;;;22.92;;
71174;SDS011;58876;51.994;4.472;2022-10-28T08:06:08;22.59;;;22.59;;
71174;SDS011;58876;51.994;4.472;2022-10-28T08:08:37;15.77;;;15.77;;
71174;SDS011;58876;51.994;4.472;2022-10-28T08:13:43;18.00;;;18.00;;
71174;SDS011;58876;51.994;4.472;2022-10-28T08:16:09;15.70;;;15.70;;
71174;SDS011;58876;51.994;4.472;2022-10-28T08:18:36;16.74;;;16.74;;
71174;SDS011;58876;51.994;4.472;2022-10-28T08:21:03;34.57;;;34.57;;
71174;SDS011;58876;51.994;4.472;2022-10-28T08:23:31;19.94;;;19.94;;
71174;SDS011;58876;51.994;4.472;2022-10-28T08:25:58;28.67;;;28.67;;
71174;SDS011;58876;51.994;4.472;2022-10-28T08:28:23;22.08;;;22.08;;
71174;SDS011;58876;51.994;4.472;2022-10-28T08:30:49;22.71;;;22.71;;
71174;SDS011;58876;51.994;4.472;2022-10-28T08:33:15;37.27;;;37.27;;
71174;SDS011;58876;51.994;4.472;2022-10-28T08:35:50;37.92;;;37.92;;
71174;SDS011;58876;51.994;4.472;2022-10-28T08:38:15;40.45;;;40.45;;
71174;SDS011;58876;51.994;4.472;2022-10-28T08:43:14;36.99;;;36.99;;
71174;SDS011;58876;51.994;4.472;2022-10-28T08:45:55;42.67;;;42.67;;
71174;SDS011;58876;51.994;4.472;2022-10-28T08:48:32;37.52;;;37.52;;
71174;SDS011;58876;51.994;4.472;2022-10-28T08:51:03;39.96;;;39.96;;
71174;SDS011;58876;51.994;4.472;2022-10-28T08:53:38;39.29;;;39.29;;
71174;SDS011;58876;51.994;4.472;2022-10-28T08:56:30;37.78;;;37.78;;
71174;SDS011;58876;51.994;4.472;2022-10-28T08:58:59;41.73;;;41.73;;
71174;SDS011;58876;51.994;4.472;2022-10-28T09:01:38;43.78;;;43.78;;
71174;SDS011;58876;51.994;4.472;2022-10-28T09:04:18;45.21;;;45.21;;
71174;SDS011;58876;51.994;4.472;2022-10-28T09:07:02;42.77;;;42.77;;
71174;SDS011;58876;51.994;4.472;2022-10-28T09:09:29;40.25;;;40.25;;
71174;SDS011;58876;51.994;4.472;2022-10-28T09:14:53;40.20;;;40.20;;
71174;SDS011;58876;51.994;4.472;2022-10-28T09:17:38;113.44;;;98.47;;
71174;SDS011;58876;51.994;4.472;2022-10-28T09:22:55;25.91;;;25.91;;
71174;SDS011;58876;51.994;4.472;2022-10-28T09:28:16;31.40;;;31.40;;
71174;SDS011;58876;51.994;4.472;2022-10-28T09:31:13;31.98;;;31.98;;
71174;SDS011;58876;51.994;4.472;2022-10-28T09:33:52;28.36;;;28.36;;
71174;SDS011;58876;51.994;4.472;2022-10-28T09:36:33;17.61;;;17.61;;
71174;SDS011;58876;51.994;4.472;2022-10-28T09:39:03;11.16;;;11.16;;
71174;SDS011;58876;51.994;4.472;2022-10-28T09:41:36;13.13;;;13.13;;
71174;SDS011;58876;51.994;4.472;2022-10-28T09:46:53;9.82;;;9.82;;
71174;SDS011;58876;51.994;4.472;2022-10-28T09:49:23;10.30;;;10.30;;
71174;SDS011;58876;51.994;4.472;2022-10-28T09:54:54;11.18;;;11.18;;
71174;SDS011;58876;51.994;4.472;2022-10-28T09:57:26;8.39;;;8.39;;
71174;SDS011;58876;51.994;4.472;2022-10-28T09:59:54;7.41;;;7.41;;
71174;SDS011;58876;51.994;4.472;2022-10-28T10:04:57;6.97;;;6.91;;
71174;SDS011;58876;51.994;4.472;2022-10-28T10:10:14;6.57;;;6.50;;
71174;SDS011;58876;51.994;4.472;2022-10-28T10:12:46;11.74;;;11.72;;
71174;SDS011;58876;51.994;4.472;2022-10-28T10:15:57;6.68;;;6.68;;
71174;SDS011;58876;51.994;4.472;2022-10-28T10:18:06;7.18;;;7.17;;
71174;SDS011;58876;51.994;4.472;2022-10-28T10:23:30;6.71;;;6.69;;
71174;SDS011;58876;51.994;4.472;2022-10-28T10:26:11;7.05;;;6.98;;
71174;SDS011;58876;51.994;4.472;2022-10-28T10:28:43;6.61;;;6.61;;
71174;SDS011;58876;51.994;4.472;2022-10-28T10:31:15;6.50;;;6.50;;
71174;SDS011;58876;51.994;4.472;2022-10-28T10:33:46;6.38;;;6.37;;
71174;SDS011;58876;51.994;4.472;2022-10-28T10:36:15;6.96;;;6.81;;
71174;SDS011;58876;51.994;4.472;2022-10-28T10:38:46;6.51;;;6.49;;
71174;SDS011;58876;51.994;4.472;2022-10-28T10:41:31;6.37;;;6.33;;
71174;SDS011;58876;51.994;4.472;2022-10-28T10:43:58;6.31;;;6.15;;
71174;SDS011;58876;51.994;4.472;2022-10-28T10:46:23;6.31;;;6.11;;
71174;SDS011;58876;51.994;4.472;2022-10-28T10:49:05;6.46;;;6.27;;
71174;SDS011;58876;51.994;4.472;2022-10-28T10:51:50;6.56;;;6.29;;
71174;SDS011;58876;51.994;4.472;2022-10-28T10:54:16;6.67;;;6.32;;
71174;SDS011;58876;51.994;4.472;2022-10-28T10:56:43;6.87;;;6.44;;
71174;SDS011;58876;51.994;4.472;2022-10-28T10:59:29;6.59;;;6.23;;
71174;SDS011;58876;51.994;4.472;2022-10-28T11:01:56;20.10;;;19.85;;
71174;SDS011;58876;51.994;4.472;2022-10-28T11:04:25;57.63;;;55.88;;
71174;SDS011;58876;51.994;4.472;2022-10-28T11:06:55;16.93;;;16.71;;
71174;SDS011;58876;51.994;4.472;2022-10-28T11:09:35;32.13;;;31.19;;
71174;SDS011;58876;51.994;4.472;2022-10-28T11:12:14;59.10;;;58.99;;
71174;SDS011;58876;51.994;4.472;2022-10-28T11:15:36;22.65;;;22.65;;
71174;SDS011;58876;51.994;4.472;2022-10-28T11:17:40;7.25;;;7.25;;
71174;SDS011;58876;51.994;4.472;2022-10-28T11:20:23;7.71;;;7.59;;
71174;SDS011;58876;51.994;4.472;2022-10-28T11:25:57;7.35;;;7.35;;
71174;SDS011;58876;51.994;4.472;2022-10-28T11:28:47;5.73;;;5.72;;
71174;SDS011;58876;51.994;4.472;2022-10-28T11:43:33;6.29;;;6.04;;
71174;SDS011;58876;51.994;4.472;2022-10-28T11:49:08;6.44;;;6.07;;
71174;SDS011;58876;51.994;4.472;2022-10-28T11:56:58;6.07;;;5.85;;
71174;SDS011;58876;51.994;4.472;2022-10-28T12:05:23;8.02;;;8.02;;
71174;SDS011;58876;51.994;4.472;2022-10-28T12:08:19;5.69;;;5.69;;
71174;SDS011;58876;51.994;4.472;2022-10-28T12:11:12;6.66;;;6.31;;
71174;SDS011;58876;51.994;4.472;2022-10-28T12:19:56;5.98;;;5.77;;
71174;SDS011;58876;51.994;4.472;2022-10-28T12:22:29;5.81;;;5.66;;
71174;SDS011;58876;51.994;4.472;2022-10-28T12:25:14;6.35;;;5.87;;
71174;SDS011;58876;51.994;4.472;2022-10-28T12:27:48;6.76;;;6.35;;
71174;SDS011;58876;51.994;4.472;2022-10-28T12:30:27;6.59;;;6.32;;
71174;SDS011;58876;51.994;4.472;2022-10-28T12:33:00;6.16;;;5.95;;
71174;SDS011;58876;51.994;4.472;2022-10-28T12:35:35;6.70;;;6.59;;
71174;SDS011;58876;51.994;4.472;2022-10-28T12:38:07;12.46;;;12.46;;
71174;SDS011;58876;51.994;4.472;2022-10-28T12:40:43;22.05;;;22.02;;
71174;SDS011;58876;51.994;4.472;2022-10-28T12:43:19;57.23;;;56.10;;
71174;SDS011;58876;51.994;4.472;2022-10-28T12:46:02;39.41;;;39.05;;
71174;SDS011;58876;51.994;4.472;2022-10-28T12:48:37;12.26;;;12.26;;
71174;SDS011;58876;51.994;4.472;2022-10-28T12:53:39;5.71;;;5.71;;
71174;SDS011;58876;51.994;4.472;2022-10-28T12:56:12;5.64;;;5.64;;
71174;SDS011;58876;51.994;4.472;2022-10-28T12:59:07;5.27;;;5.24;;
71174;SDS011;58876;51.994;4.472;2022-10-28T13:01:36;6.01;;;5.70;;
71174;SDS011;58876;51.994;4.472;2022-10-28T13:04:03;6.98;;;6.72;;
71174;SDS011;58876;51.994;4.472;2022-10-28T13:15:14;5.54;;;5.42;;
71174;SDS011;58876;51.994;4.472;2022-10-28T13:23:16;7.01;;;6.88;;
71174;SDS011;58876;51.994;4.472;2022-10-28T13:26:16;5.06;;;4.85;;
71174;SDS011;58876;51.994;4.472;2022-10-28T13:28:53;8.67;;;8.44;;
71174;SDS011;58876;51.994;4.472;2022-10-28T13:31:21;5.54;;;5.47;;
71174;SDS011;58876;51.994;4.472;2022-10-28T13:33:59;5.76;;;5.40;;
71174;SDS011;58876;51.994;4.472;2022-10-28T13:38:52;5.60;;;5.17;;
71174;SDS011;58876;51.994;4.472;2022-10-28T13:41:25;5.24;;;4.82;;
71174;SDS011;58876;51.994;4.472;2022-10-28T13:52:33;5.68;;;5.23;;
71174;SDS011;58876;51.994;4.472;2022-10-28T13:57:38;5.10;;;4.67;;
71174;SDS011;58876;51.994;4.472;2022-10-28T14:02:46;5.38;;;4.84;;
71174;SDS011;58876;51.994;4.472;2022-10-28T14:05:25;5.06;;;4.68;;
71174;SDS011;58876;51.994;4.472;2022-10-28T14:08:18;5.34;;;4.77;;
71174;SDS011;58876;51.994;4.472;2022-10-28T14:11:04;5.65;;;4.95;;
71174;SDS011;58876;51.994;4.472;2022-10-28T14:13:39;5.34;;;4.68;;
71174;SDS011;58876;51.994;4.472;2022-10-28T14:35:01;5.09;;;5.09;;
71174;SDS011;58876;51.994;4.472;2022-10-28T14:40:45;6.33;;;6.22;;
71174;SDS011;58876;51.994;4.472;2022-10-28T14:46:06;9.01;;;9.01;;
71174;SDS011;58876;51.994;4.472;2022-10-28T14:48:40;5.73;;;5.73;;
71174;SDS011;58876;51.994;4.472;2022-10-28T14:51:19;6.52;;;6.52;;
71174;SDS011;58876;51.994;4.472;2022-10-28T14:53:50;8.55;;;8.55;;
71174;SDS011;58876;51.994;4.472;2022-10-28T14:56:24;7.97;;;7.97;;
71174;SDS011;58876;51.994;4.472;2022-10-28T14:58:53;6.47;;;6.47;;
71174;SDS011;58876;51.994;4.472;2022-10-28T15:01:23;7.68;;;7.68;;
71174;SDS011;58876;51.994;4.472;2022-10-28T15:04:13;7.18;;;7.18;;
71174;SDS011;58876;51.994;4.472;2022-10-28T15:06:40;7.65;;;7.65;;
71174;SDS011;58876;51.994;4.472;2022-10-28T15:11:54;8.15;;;8.15;;
71174;SDS011;58876;51.994;4.472;2022-10-28T15:14:28;5.16;;;5.16;;
71174;SDS011;58876;51.994;4.472;2022-10-28T15:16:57;5.56;;;5.56;;
71174;SDS011;58876;51.994;4.472;2022-10-28T15:19:25;6.01;;;6.01;;
71174;SDS011;58876;51.994;4.472;2022-10-28T15:22:00;6.24;;;6.24;;
71174;SDS011;58876;51.994;4.472;2022-10-28T15:24:28;6.64;;;6.64;;
71174;SDS011;58876;51.994;4.472;2022-10-28T15:26:54;10.28;;;10.28;;
71174;SDS011;58876;51.994;4.472;2022-10-28T15:29:21;15.44;;;15.44;;
71174;SDS011;58876;51.994;4.472;2022-10-28T15:34:33;17.24;;;17.24;;
71174;SDS011;58876;51.994;4.472;2022-10-28T15:36:59;28.19;;;28.19;;
71174;SDS011;58876;51.994;4.472;2022-10-28T15:39:24;20.94;;;20.94;;
71174;SDS011;58876;51.994;4.472;2022-10-28T15:41:50;30.07;;;30.07;;
71174;SDS011;58876;51.994;4.472;2022-10-28T15:44:26;39.73;;;39.73;;
71174;SDS011;58876;51.994;4.472;2022-10-28T15:46:53;41.19;;;41.19;;
71174;SDS011;58876;51.994;4.472;2022-10-28T15:52:38;95.75;;;95.75;;
71174;SDS011;58876;51.994;4.472;2022-10-28T15:57:49;89.78;;;89.78;;
71174;SDS011;58876;51.994;4.472;2022-10-28T16:02:49;101.04;;;101.04;;
71174;SDS011;58876;51.994;4.472;2022-10-28T16:07:57;126.49;;;126.49;;
71174;SDS011;58876;51.994;4.472;2022-10-28T16:10:27;159.19;;;159.19;;
71174;SDS011;58876;51.994;4.472;2022-10-28T16:12:58;117.16;;;117.16;;
71174;SDS011;58876;51.994;4.472;2022-10-28T16:15:28;130.69;;;130.69;;
71174;SDS011;58876;51.994;4.472;2022-10-28T16:17:53;103.10;;;103.10;;
71174;SDS011;58876;51.994;4.472;2022-10-28T16:20:20;103.07;;;103.07;;
71174;SDS011;58876;51.994;4.472;2022-10-28T16:22:51;112.25;;;112.25;;
71174;SDS011;58876;51.994;4.472;2022-10-28T16:25:21;81.56;;;81.56;;
71174;SDS011;58876;51.994;4.472;2022-10-28T16:27:47;83.74;;;83.74;;
71174;SDS011;58876;51.994;4.472;2022-10-28T16:30:14;73.40;;;73.40;;
71174;SDS011;58876;51.994;4.472;2022-10-28T16:32:40;63.41;;;63.41;;
71174;SDS011;58876;51.994;4.472;2022-10-28T16:35:17;58.36;;;58.36;;
71174;SDS011;58876;51.994;4.472;2022-10-28T16:37:45;65.35;;;65.35;;
71174;SDS011;58876;51.994;4.472;2022-10-28T16:40:11;60.27;;;60.27;;
71174;SDS011;58876;51.994;4.472;2022-10-28T16:42:37;38.72;;;38.72;;
71174;SDS011;58876;51.994;4.472;2022-10-28T16:45:05;49.00;;;49.00;;
71174;SDS011;58876;51.994;4.472;2022-10-28T16:47:31;39.62;;;39.62;;
71174;SDS011;58876;51.994;4.472;2022-10-28T16:49:56;41.63;;;41.63;;
71174;SDS011;58876;51.994;4.472;2022-10-28T16:52:23;40.83;;;40.83;;
71174;SDS011;58876;51.994;4.472;2022-10-28T16:54:51;32.99;;;32.99;;
71174;SDS011;58876;51.994;4.472;2022-10-28T16:57:17;14.86;;;14.86;;
71174;SDS011;58876;51.994;4.472;2022-10-28T16:59:44;10.07;;;10.07;;
71174;SDS011;58876;51.994;4.472;2022-10-28T17:04:55;8.21;;;8.21;;
71174;SDS011;58876;51.994;4.472;2022-10-28T17:07:21;7.84;;;7.84;;
71174;SDS011;58876;51.994;4.472;2022-10-28T17:09:46;7.11;;;7.11;;
71174;SDS011;58876;51.994;4.472;2022-10-28T17:12:16;6.56;;;6.56;;
71174;SDS011;58876;51.994;4.472;2022-10-28T17:14:43;4.87;;;4.87;;
71174;SDS011;58876;51.994;4.472;2022-10-28T17:17:10;5.29;;;5.29;;
71174;SDS011;58876;51.994;4.472;2022-10-28T17:19:36;5.18;;;5.18;;
71174;SDS011;58876;51.994;4.472;2022-10-28T17:22:03;4.51;;;4.51;;
71174;SDS011;58876;51.994;4.472;2022-10-28T17:24:30;4.96;;;4.96;;
71174;SDS011;58876;51.994;4.472;2022-10-28T17:26:55;4.85;;;4.85;;
71174;SDS011;58876;51.994;4.472;2022-10-28T17:29:21;4.30;;;4.27;;
71174;SDS011;58876;51.994;4.472;2022-10-28T17:31:46;4.92;;;4.30;;
71174;SDS011;58876;51.994;4.472;2022-10-28T17:34:12;4.41;;;3.57;;
71174;SDS011;58876;51.994;4.472;2022-10-28T17:36:37;5.30;;;4.21;;
71174;SDS011;58876;51.994;4.472;2022-10-28T17:39:03;5.61;;;4.46;;
71174;SDS011;58876;51.994;4.472;2022-10-28T17:41:29;5.55;;;4.24;;
71174;SDS011;58876;51.994;4.472;2022-10-28T17:43:54;6.16;;;4.55;;
71174;SDS011;58876;51.994;4.472;2022-10-28T17:46:20;7.22;;;5.05;;
71174;SDS011;58876;51.994;4.472;2022-10-28T17:48:46;7.30;;;4.99;;
71174;SDS011;58876;51.994;4.472;2022-10-28T17:51:11;7.27;;;4.91;;
71174;SDS011;58876;51.994;4.472;2022-10-28T17:53:37;7.48;;;5.15;;
71174;SDS011;58876;51.994;4.472;2022-10-28T17:56:03;6.91;;;4.72;;